Terminal Aerodrome Forecast
Issued by NWS

Home | Current Version | Previous Version | Text Only | Print | Product List | Glossary On
Versions: 1 2 3 4 5 6 7 8 9 10 11 12
000
FTUS46 KSTO 140500
TAFSCK
TAF
KSCK 140534Z 1406/1506 27007KT P6SM FEW250
     FM141900 28006KT P6SM BKN250
     FM150100 31015KT P6SM OVC150=

USA.gov is the U.S. government's official web portal to all federal, state and local government web resources and services.